Time;durP1;ratioP1;P1;durP2;ratioP2;P2;SDS_P1;SDS_P2;PMS_P1;PMS_P2;Temp;Humidity;BMP_temperature;BMP_pressure;BME280_temperature;BME280_humidity;BME280_pressure;Samples;Min_cycle;Max_cycle;Signal;HPM_P1;HPM_P2
2022/01/27 00:00:43;;;;;;;57.13;24.42;;;5.30;99.90;;;;;;5015698;28;20049;-45
2022/01/27 00:05:37;;;;;;;50.63;24.95;;;5.30;99.90;;;;;;5015586;28;20065;-45
2022/01/27 00:13:01;;;;;;;52.97;24.33;;;5.30;99.90;;;;;;5014720;28;20553;-45
2022/01/27 00:15:33;;;;;;;49.95;23.75;;;5.30;99.90;;;;;;5016267;28;20033;-45
2022/01/27 00:18:03;;;;;;;49.58;24.10;;;5.30;99.90;;;;;;5013632;28;20522;-44
2022/01/27 00:20:28;;;;;;;48.78;23.65;;;5.30;99.90;;;;;;5013971;28;20085;-45
2022/01/27 00:22:54;;;;;;;46.90;23.95;;;5.30;99.90;;;;;;5015477;28;20066;-46
2022/01/27 00:25:20;;;;;;;50.67;23.63;;;5.30;99.90;;;;;;5016632;28;20033;-45
2022/01/27 00:27:46;;;;;;;49.53;24.35;;;5.30;99.90;;;;;;5014568;28;20052;-45
2022/01/27 00:30:12;;;;;;;49.35;23.40;;;5.30;99.90;;;;;;5017917;28;20116;-47
2022/01/27 00:32:38;;;;;;;49.28;22.15;;;5.30;99.90;;;;;;5017614;28;20597;-45
2022/01/27 00:35:06;;;;;;;48.78;22.83;;;5.30;99.90;;;;;;5012802;28;20773;-45
2022/01/27 00:37:32;;;;;;;50.38;23.67;;;5.30;99.90;;;;;;5027431;28;20054;-45
2022/01/27 00:39:57;;;;;;;50.80;23.27;;;5.30;99.90;;;;;;5013616;28;20026;-44
2022/01/27 00:42:25;;;;;;;46.53;23.85;;;5.30;99.90;;;;;;5015004;28;20032;-46
2022/01/27 00:44:51;;;;;;;48.22;24.17;;;5.30;99.90;;;;;;5016732;28;20072;-44
2022/01/27 00:47:17;;;;;;;51.38;22.88;;;5.30;99.90;;;;;;5016031;28;20108;-45
2022/01/27 00:49:43;;;;;;;49.38;22.73;;;5.30;99.90;;;;;;5012640;28;20022;-45
2022/01/27 00:52:14;;;;;;;46.42;23.38;;;5.30;99.90;;;;;;5013831;28;20033;-48
2022/01/27 00:54:40;;;;;;;;;;;5.30;99.90;;;;;;5012750;28;20041;-45
2022/01/27 00:57:14;;;;;;;47.13;22.33;;;5.30;99.90;;;;;;5014738;28;19928;-45
2022/01/27 00:59:52;;;;;;;48.35;23.10;;;5.30;99.90;;;;;;5012943;28;20108;-45
2022/01/27 01:02:33;;;;;;;43.78;21.35;;;5.30;99.90;;;;;;5014709;28;20044;-45
2022/01/27 01:05:19;;;;;;;45.53;22.55;;;5.30;99.90;;;;;;5014137;28;20022;-45
2022/01/27 01:07:48;;;;;;;45.72;21.20;;;5.30;99.90;;;;;;5013853;28;20080;-45
2022/01/27 01:14:01;;;;;;;40.63;21.70;;;5.40;99.90;;;;;;5013427;28;20041;-45
2022/01/27 01:15:35;;;;;;;43.30;21.50;;;5.40;99.90;;;;;;5010598;28;20506;-45
2022/01/27 01:18:19;;;;;;;47.67;21.48;;;5.40;99.90;;;;;;5012707;28;20026;-46
2022/01/27 01:31:45;;;;;;;44.58;20.42;;;5.50;99.90;;;;;;5012764;28;20068;-45
2022/01/27 01:39:19;;;;;;;43.55;20.42;;;5.50;99.90;;;;;;5015713;28;20234;-45
2022/01/27 01:41:45;;;;;;;39.40;20.17;;;5.50;99.90;;;;;;5017990;28;20560;-49
2022/01/27 01:44:11;;;;;;;43.60;21.58;;;5.50;99.90;;;;;;5022775;28;20037;-45
2022/01/27 01:46:37;;;;;;;47.80;20.73;;;5.40;99.90;;;;;;5019449;28;20447;-46
2022/01/27 01:49:03;;;;;;;45.78;19.35;;;5.40;99.90;;;;;;5019464;28;20018;-45
2022/01/27 01:51:32;;;;;;;45.95;22.10;;;5.50;99.90;;;;;;5012217;28;20041;-45
2022/01/27 01:53:58;;;;;;;40.67;19.30;;;5.40;99.90;;;;;;5013992;28;20037;-46
2022/01/27 01:56:24;;;;;;;43.13;21.25;;;5.50;99.90;;;;;;5016704;28;20700;-46
2022/01/27 01:58:51;;;;;;;40.35;20.45;;;5.40;99.90;;;;;;5011919;28;20052;-46
2022/01/27 02:01:17;;;;;;;46.85;21.13;;;5.50;99.90;;;;;;5015597;28;20026;-46
2022/01/27 02:03:45;;;;;;;46.05;21.98;;;5.40;99.90;;;;;;5011626;28;20101;-44
2022/01/27 02:06:19;;;;;;;40.28;20.55;;;5.40;99.90;;;;;;5013330;28;20033;-45
2022/01/27 02:09:10;;;;;;;42.80;20.58;;;5.40;99.90;;;;;;5010502;28;20026;-45
2022/01/27 02:18:08;;;;;;;50.20;22.08;;;5.30;99.90;;;;;;5014283;28;20099;-45
2022/01/27 02:20:03;;;;;;;45.60;19.52;;;5.30;99.90;;;;;;5002949;28;20096;-45
2022/01/27 02:22:29;;;;;;;43.08;20.05;;;5.30;99.90;;;;;;5012659;28;20164;-45
2022/01/27 02:24:55;;;;;;;45.58;22.45;;;5.20;99.90;;;;;;5012537;28;20073;-46
2022/01/27 02:27:21;;;;;;;48.63;21.80;;;5.20;99.90;;;;;;5012841;28;20026;-46
2022/01/27 02:29:48;;;;;;;45.60;21.55;;;5.20;99.90;;;;;;5013455;28;20033;-46
2022/01/27 02:32:15;;;;;;;46.70;22.13;;;5.20;99.90;;;;;;5013601;28;20038;-45
2022/01/27 02:34:41;;;;;;;46.17;21.55;;;5.20;99.90;;;;;;5012468;28;20080;-45
2022/01/27 02:37:08;;;;;;;48.63;23.65;;;5.20;99.90;;;;;;5017911;28;20086;-47
2022/01/27 02:39:34;;;;;;;45.22;21.92;;;5.20;99.90;;;;;;5012354;28;20109;-46
2022/01/27 02:42:11;;;;;;;45.65;22.40;;;5.20;99.90;;;;;;5011563;28;20049;-48
2022/01/27 02:44:45;;;;;;;47.20;22.83;;;5.20;99.90;;;;;;5015072;28;20267;-45
2022/01/27 02:47:12;;;;;;;45.35;22.70;;;5.20;99.90;;;;;;5018491;28;20101;-44
2022/01/27 02:49:39;;;;;;;50.33;24.17;;;5.20;99.90;;;;;;5015987;28;20397;-47
2022/01/27 02:52:05;;;;;;;52.65;23.38;;;5.20;99.90;;;;;;5016530;28;20029;-47
2022/01/27 02:54:31;;;;;;;48.00;24.13;;;5.20;99.90;;;;;;5019447;28;20028;-47
2022/01/27 02:56:56;;;;;;;48.20;23.05;;;5.20;99.90;;;;;;5019550;28;20061;-45
2022/01/27 02:59:23;;;;;;;52.03;24.35;;;5.20;99.90;;;;;;5016400;28;20030;-44
2022/01/27 03:01:49;;;;;;;46.15;22.92;;;5.20;99.90;;;;;;5017534;28;20471;-45
2022/01/27 03:04:16;;;;;;;47.67;24.20;;;5.20;99.90;;;;;;5031373;28;20693;-47
2022/01/27 03:06:43;;;;;;;50.17;22.33;;;5.30;99.90;;;;;;5019004;28;20065;-45
2022/01/27 03:09:09;;;;;;;47.78;24.02;;;5.30;99.90;;;;;;5015658;28;20033;-46
2022/01/27 03:11:46;;;;;;;47.67;24.30;;;5.30;99.90;;;;;;5015006;28;20034;-45
2022/01/27 03:14:17;;;;;;;44.22;23.58;;;5.30;99.90;;;;;;5015885;28;20034;-47
2022/01/27 03:16:43;;;;;;;45.20;22.77;;;5.30;99.90;;;;;;5015711;28;20433;-45
2022/01/27 03:19:09;;;;;;;48.35;24.40;;;5.20;99.90;;;;;;5021267;28;20046;-49
2022/01/27 03:21:35;;;;;;;47.08;23.20;;;5.30;99.90;;;;;;5017634;28;20038;-47
2022/01/27 03:24:01;;;;;;;47.53;24.27;;;5.30;99.90;;;;;;5017239;28;20034;-45
2022/01/27 03:26:27;;;;;;;45.10;23.70;;;5.30;99.90;;;;;;5016556;28;20080;-45
2022/01/27 03:28:53;;;;;;;48.38;23.13;;;5.30;99.90;;;;;;5015584;28;20045;-44
2022/01/27 03:31:19;;;;;;;49.92;21.90;;;5.30;99.90;;;;;;5014998;28;20018;-45
2022/01/27 03:33:45;;;;;;;47.45;22.38;;;5.30;99.90;;;;;;5018055;28;20112;-45
2022/01/27 03:36:12;;;;;;;48.42;22.60;;;5.30;99.90;;;;;;5016659;28;20032;-45
2022/01/27 03:38:39;;;;;;;50.90;23.90;;;5.30;99.90;;;;;;5016700;28;20030;-47
2022/01/27 03:41:07;;;;;;;50.80;24.80;;;5.30;99.90;;;;;;5015729;28;20160;-44
2022/01/27 03:43:33;;;;;;;49.10;24.17;;;5.20;99.90;;;;;;5029999;28;20018;-42
2022/01/27 03:45:59;;;;;;;51.47;25.35;;;5.20;99.90;;;;;;5019858;28;20107;-42
2022/01/27 03:48:25;;;;;;;49.05;23.48;;;5.20;99.90;;;;;;5018150;28;20057;-41
2022/01/27 03:50:51;;;;;;;51.50;22.30;;;5.30;99.90;;;;;;5014809;28;20481;-44
2022/01/27 03:53:16;;;;;;;50.13;23.35;;;5.30;99.90;;;;;;5015502;28;20033;-43
2022/01/27 03:55:43;;;;;;;52.05;23.70;;;5.20;99.90;;;;;;5013698;28;20501;-42
2022/01/27 03:58:09;;;;;;;53.28;24.33;;;5.30;99.90;;;;;;5017523;28;20022;-42
2022/01/27 04:00:35;;;;;;;50.30;24.88;;;5.30;99.90;;;;;;5017444;28;20044;-44
2022/01/27 04:03:07;;;;;;;49.15;24.42;;;5.30;99.90;;;;;;5036746;28;20431;-45
2022/01/27 04:05:40;;;;;;;52.08;23.63;;;5.30;99.90;;;;;;5017040;28;20042;-43
2022/01/27 04:08:09;;;;;;;54.38;23.63;;;5.30;99.90;;;;;;5013082;28;20041;-43
2022/01/27 04:10:36;;;;;;;49.33;23.75;;;5.30;99.90;;;;;;5014253;28;20026;-43
2022/01/27 04:13:03;;;;;;;51.75;25.38;;;5.30;99.90;;;;;;5013596;28;20128;-43
2022/01/27 04:15:30;;;;;;;51.38;23.42;;;5.30;99.90;;;;;;5016302;28;20034;-44
2022/01/27 04:17:56;;;;;;;55.47;24.10;;;5.30;99.90;;;;;;5015555;28;20031;-43
2022/01/27 04:20:22;;;;;;;52.53;23.92;;;5.30;99.90;;;;;;5016996;28;20058;-44
2022/01/27 04:22:48;;;;;;;47.72;23.05;;;5.30;99.90;;;;;;5013534;28;20121;-44
2022/01/27 04:25:15;;;;;;;49.25;23.80;;;5.30;99.90;;;;;;5014276;28;20030;-43
2022/01/27 04:27:46;;;;;;;44.72;22.95;;;5.40;99.90;;;;;;5014324;28;20025;-43
2022/01/27 04:30:18;;;;;;;50.83;23.98;;;5.40;99.90;;;;;;5014877;28;20032;-44
2022/01/27 04:32:52;;;;;;;;;;;5.30;99.90;;;;;;5014842;28;20042;-44
2022/01/27 04:35:21;;;;;;;56.13;22.95;;;5.40;99.90;;;;;;5014322;28;19924;-44
2022/01/27 04:38:10;;;;;;;47.95;22.90;;;5.40;99.90;;;;;;5012857;28;20033;-43
2022/01/27 04:48:34;;;;;;;45.95;22.60;;;5.40;99.90;;;;;;5012874;28;20034;-44
2022/01/27 04:51:06;;;;;;;46.38;23.42;;;5.40;99.90;;;;;;5013395;28;20544;-44
2022/01/27 04:53:37;;;;;;;;;;;5.40;99.90;;;;;;5014135;28;20092;-47
2022/01/27 04:56:03;;;;;;;46.95;21.65;;;5.50;99.90;;;;;;5012951;28;20028;-44
2022/01/27 04:58:32;;;;;;;45.47;23.08;;;5.50;99.90;;;;;;5014692;28;20518;-45
2022/01/27 05:01:00;;;;;;;46.70;21.90;;;5.50;99.90;;;;;;5012198;28;20037;-45
2022/01/27 05:03:42;;;;;;;51.10;23.65;;;5.50;99.90;;;;;;5011962;28;20410;-44
2022/01/27 05:06:08;;;;;;;46.17;21.75;;;5.50;99.90;;;;;;5013359;28;20049;-44
2022/01/27 05:08:34;;;;;;;48.67;21.63;;;5.50;99.90;;;;;;5014094;28;20030;-44
2022/01/27 05:13:28;;;;;;;50.10;21.08;;;5.60;99.90;;;;;;5013771;28;20046;-44
2022/01/27 05:15:54;;;;;;;51.30;22.08;;;5.60;99.90;;;;;;5013285;28;20038;-44
2022/01/27 05:18:21;;;;;;;46.67;22.92;;;5.50;99.90;;;;;;5016749;28;20079;-45
2022/01/27 05:20:49;;;;;;;51.28;21.70;;;5.60;99.90;;;;;;5013127;28;20164;-46
2022/01/27 05:23:15;;;;;;;48.40;21.92;;;5.60;99.90;;;;;;5011923;28;20029;-45
2022/01/27 05:25:41;;;;;;;45.40;21.23;;;5.60;99.90;;;;;;5010276;28;20743;-44
2022/01/27 05:28:07;;;;;;;45.95;22.08;;;5.60;99.90;;;;;;5027558;28;20476;-45
2022/01/27 05:30:34;;;;;;;51.28;22.83;;;5.60;99.90;;;;;;5014375;28;20044;-44
2022/01/27 05:33:00;;;;;;;46.17;22.65;;;5.60;99.90;;;;;;5009681;28;20116;-45
2022/01/27 05:35:26;;;;;;;41.83;20.00;;;5.60;99.90;;;;;;5015395;28;20767;-47
2022/01/27 05:37:52;;;;;;;45.28;21.55;;;5.70;99.90;;;;;;5011392;28;20065;-45
2022/01/27 05:40:18;;;;;;;48.38;20.98;;;5.70;99.90;;;;;;5013093;28;20424;-44
2022/01/27 05:42:43;;;;;;;45.22;21.02;;;5.70;99.90;;;;;;5026853;28;20058;-43
2022/01/27 05:45:10;;;;;;;46.08;20.45;;;5.70;99.90;;;;;;5013334;28;20018;-43
2022/01/27 05:47:36;;;;;;;42.10;19.83;;;5.80;99.90;;;;;;5013239;28;20026;-44
2022/01/27 05:50:04;;;;;;;40.22;19.10;;;5.80;99.90;;;;;;5015777;28;20021;-45
2022/01/27 05:52:30;;;;;;;47.58;19.48;;;5.80;99.90;;;;;;5019547;28;20044;-46
2022/01/27 05:54:57;;;;;;;47.38;18.88;;;5.80;99.90;;;;;;5014182;28;20429;-43
2022/01/27 05:57:23;;;;;;;44.03;19.20;;;5.80;99.90;;;;;;5020468;28;20030;-43
2022/01/27 05:59:49;;;;;;;48.03;20.02;;;5.80;99.90;;;;;;4998046;28;20033;-42
2022/01/27 06:02:14;;;;;;;41.50;20.20;;;5.80;99.90;;;;;;5014796;28;20495;-42
2022/01/27 06:04:40;;;;;;;43.38;19.52;;;5.80;99.90;;;;;;5013100;28;20041;-44
2022/01/27 06:07:06;;;;;;;48.13;21.30;;;5.70;99.90;;;;;;5013998;28;20045;-42
2022/01/27 06:09:31;;;;;;;44.92;19.40;;;5.70;99.90;;;;;;5013681;28;20034;-43
2022/01/27 06:11:57;;;;;;;46.58;20.98;;;5.70;99.90;;;;;;5013890;28;20030;-44
2022/01/27 06:14:23;;;;;;;47.53;19.48;;;5.70;99.90;;;;;;5015265;28;20036;-42
2022/01/27 06:16:48;;;;;;;46.33;20.52;;;5.70;99.90;;;;;;5011823;28;20368;-43
2022/01/27 06:19:14;;;;;;;49.97;20.65;;;5.70;99.90;;;;;;5020099;28;20025;-44
2022/01/27 06:21:42;;;;;;;50.15;20.55;;;5.60;99.90;;;;;;5015973;28;20048;-44
2022/01/27 06:24:08;;;;;;;48.65;20.98;;;5.60;99.90;;;;;;5017471;28;20491;-44
2022/01/27 06:26:34;;;;;;;48.65;21.08;;;5.60;99.90;;;;;;5017764;28;20049;-43
2022/01/27 06:28:59;;;;;;;47.72;21.10;;;5.60;99.90;;;;;;5017195;28;20686;-43
2022/01/27 06:31:25;;;;;;;45.45;21.27;;;5.60;99.90;;;;;;5017526;28;20377;-43
2022/01/27 06:33:52;;;;;;;45.40;20.55;;;5.60;99.90;;;;;;5017919;28;20436;-44
2022/01/27 06:36:19;;;;;;;48.83;21.15;;;5.60;99.90;;;;;;5017529;28;20022;-44
2022/01/27 06:38:45;;;;;;;48.38;21.67;;;5.60;99.90;;;;;;5018055;28;20033;-44
2022/01/27 06:41:11;;;;;;;48.78;21.45;;;5.60;99.90;;;;;;5017490;28;20065;-46
2022/01/27 06:43:36;;;;;;;45.45;20.88;;;5.60;99.90;;;;;;5018499;28;20362;-43
2022/01/27 06:46:02;;;;;;;50.45;21.95;;;5.60;99.90;;;;;;5012934;28;20552;-44
2022/01/27 06:48:28;;;;;;;47.75;21.60;;;5.60;99.90;;;;;;5017540;28;20258;-44
2022/01/27 06:50:54;;;;;;;44.10;19.35;;;5.50;99.90;;;;;;5015701;28;20032;-44
2022/01/27 06:53:20;;;;;;;41.67;20.27;;;5.60;99.90;;;;;;5044398;28;20462;-44
2022/01/27 06:55:46;;;;;;;38.53;19.40;;;5.60;99.90;;;;;;5037676;28;20045;-44
2022/01/27 06:58:12;;;;;;;43.65;19.20;;;5.60;99.90;;;;;;5029622;28;20034;-43
2022/01/27 07:00:38;;;;;;;42.10;20.00;;;5.60;99.90;;;;;;5025383;28;20048;-44
2022/01/27 07:03:04;;;;;;;39.35;18.63;;;5.60;99.90;;;;;;5006265;28;20030;-44
2022/01/27 07:05:31;;;;;;;41.72;18.85;;;5.60;99.90;;;;;;5020677;28;20746;-44
2022/01/27 07:07:58;;;;;;;42.58;19.23;;;5.70;99.90;;;;;;5015913;28;20041;-44
2022/01/27 07:10:23;;;;;;;39.25;17.90;;;5.70;99.90;;;;;;5020121;28;20029;-44
2022/01/27 07:12:49;;;;;;;42.13;19.17;;;5.70;99.90;;;;;;5015753;28;20041;-44
2022/01/27 07:15:15;;;;;;;40.47;18.67;;;5.70;99.90;;;;;;5016459;28;20037;-44
2022/01/27 07:17:41;;;;;;;35.70;16.80;;;5.70;99.90;;;;;;5016609;28;20028;-46
2022/01/27 07:20:07;;;;;;;39.22;17.20;;;5.70;99.90;;;;;;5016312;28;20029;-44
2022/01/27 07:22:35;;;;;;;38.53;16.27;;;5.80;99.90;;;;;;5017384;28;20025;-44
2022/01/27 07:25:02;;;;;;;37.60;16.33;;;5.80;99.90;;;;;;5013210;28;20018;-45
2022/01/27 07:27:28;;;;;;;36.80;15.98;;;5.80;99.90;;;;;;5016367;28;20030;-45
2022/01/27 07:29:54;;;;;;;39.05;16.13;;;5.80;99.90;;;;;;5014966;28;20433;-44
2022/01/27 07:32:20;;;;;;;33.15;16.45;;;5.90;99.90;;;;;;5015731;28;20040;-44
2022/01/27 07:34:45;;;;;;;34.83;16.15;;;6.00;99.90;;;;;;5013766;28;20612;-48
2022/01/27 07:37:11;;;;;;;34.47;15.27;;;6.00;99.90;;;;;;5022778;28;20030;-44
2022/01/27 07:39:36;;;;;;;35.88;15.95;;;6.10;99.90;;;;;;5028551;28;20042;-45
2022/01/27 07:42:02;;;;;;;34.08;15.02;;;6.20;99.90;;;;;;5021546;28;20049;-44
2022/01/27 07:44:28;;;;;;;33.53;15.18;;;6.20;99.90;;;;;;5024180;28;20026;-43
2022/01/27 07:46:55;;;;;;;26.60;13.57;;;6.30;99.90;;;;;;5021885;28;20101;-45
2022/01/27 07:49:20;;;;;;;32.15;14.27;;;6.30;99.90;;;;;;5023635;28;20034;-45
2022/01/27 07:51:46;;;;;;;30.40;15.18;;;6.30;99.90;;;;;;5023731;28;20038;-44
2022/01/27 07:54:12;;;;;;;34.83;14.73;;;6.40;99.90;;;;;;5023198;28;20033;-44
2022/01/27 07:56:38;;;;;;;34.70;15.32;;;6.40;99.90;;;;;;5024063;28;20037;-43
2022/01/27 07:59:04;;;;;;;30.42;15.60;;;6.40;99.90;;;;;;5023457;28;20030;-45
2022/01/27 08:01:30;;;;;;;34.65;15.30;;;6.50;99.90;;;;;;5022897;28;20376;-44
2022/01/27 08:03:55;;;;;;;37.95;16.00;;;6.50;99.90;;;;;;5021511;28;20102;-43
2022/01/27 08:06:21;;;;;;;37.78;16.83;;;6.50;99.90;;;;;;5024366;28;20053;-44
2022/01/27 08:08:48;;;;;;;34.83;16.27;;;6.50;99.90;;;;;;5022932;28;20552;-44
2022/01/27 08:11:13;;;;;;;42.05;17.52;;;6.50;99.90;;;;;;5023783;28;20088;-44
2022/01/27 08:13:39;;;;;;;38.45;16.95;;;6.60;99.90;;;;;;5023731;28;20025;-45
2022/01/27 08:16:06;;;;;;;32.58;16.77;;;6.60;99.90;;;;;;5023399;28;20037;-44
2022/01/27 08:18:31;;;;;;;42.53;17.83;;;6.60;99.90;;;;;;5023633;28;20117;-44
2022/01/27 08:20:57;;;;;;;35.83;17.05;;;6.60;99.90;;;;;;5023113;28;20477;-44
2022/01/27 08:23:24;;;;;;;49.63;18.10;;;6.60;99.90;;;;;;5022711;28;20025;-49
2022/01/27 08:25:59;;;;;;;39.97;17.08;;;6.70;99.90;;;;;;5022777;28;20046;-43
2022/01/27 08:28:31;;;;;;;41.85;16.30;;;6.70;99.90;;;;;;5022976;28;20055;-45
2022/01/27 08:30:58;;;;;;;39.33;17.17;;;6.70;99.90;;;;;;5023382;28;20042;-51
2022/01/27 08:33:28;;;;;;;38.85;16.38;;;6.80;99.90;;;;;;5022274;28;20026;-52
2022/01/27 08:35:54;;;;;;;41.72;17.20;;;6.80;99.90;;;;;;5022913;28;20045;-50
2022/01/27 08:38:20;;;;;;;47.70;16.77;;;6.80;99.90;;;;;;5021366;28;20025;-48
2022/01/27 08:40:45;;;;;;;39.15;16.13;;;6.80;99.90;;;;;;5022306;28;20044;-53
2022/01/27 08:43:11;;;;;;;41.90;16.02;;;6.80;99.90;;;;;;5020999;28;20032;-52
2022/01/27 08:45:39;;;;;;;41.22;15.80;;;6.90;99.90;;;;;;5022033;28;20065;-44
2022/01/27 08:48:06;;;;;;;35.20;15.18;;;6.80;99.90;;;;;;5022668;28;20037;-46
2022/01/27 08:50:32;;;;;;;37.83;15.70;;;6.90;99.90;;;;;;5022525;28;20026;-47
2022/01/27 08:52:58;;;;;;;42.40;16.27;;;6.90;99.90;;;;;;5023639;28;20083;-44
2022/01/27 08:55:23;;;;;;;39.75;15.43;;;7.00;99.90;;;;;;5021908;28;20493;-44
2022/01/27 08:57:50;;;;;;;42.00;15.38;;;7.00;99.90;;;;;;5023402;28;20399;-43
2022/01/27 09:00:19;;;;;;;34.85;13.32;;;7.10;99.90;;;;;;5022824;28;20509;-43
2022/01/27 09:02:46;;;;;;;37.35;13.32;;;7.20;99.90;;;;;;5022776;28;20030;-44
2022/01/27 09:05:12;;;;;;;34.38;13.85;;;7.20;99.90;;;;;;5021856;28;20026;-43
2022/01/27 09:07:38;;;;;;;35.42;13.32;;;7.20;99.90;;;;;;5022050;28;20040;-43
2022/01/27 09:10:05;;;;;;;36.22;14.05;;;7.30;99.90;;;;;;5023172;28;20478;-47
2022/01/27 09:12:31;;;;;;;31.88;13.52;;;7.40;99.90;;;;;;5021837;28;20022;-44
2022/01/27 09:14:57;;;;;;;33.65;12.57;;;7.40;99.90;;;;;;5022721;28;20040;-44
2022/01/27 09:17:26;;;;;;;31.92;12.52;;;7.40;99.90;;;;;;5002680;28;20026;-43
2022/01/27 09:19:52;;;;;;;29.02;13.27;;;7.40;99.90;;;;;;5003017;28;20556;-44
2022/01/27 09:22:19;;;;;;;30.88;12.00;;;7.50;99.90;;;;;;5003076;28;20031;-44
2022/01/27 09:27:19;;;;;;;28.60;10.88;;;7.60;99.90;;;;;;5021971;28;20059;-45
2022/01/27 09:29:47;;;;;;;34.63;11.75;;;7.60;99.90;;;;;;5021748;28;20018;-47
2022/01/27 09:32:14;;;;;;;31.02;11.38;;;7.60;99.90;;;;;;5022704;28;20037;-47
2022/01/27 09:34:40;;;;;;;27.08;10.80;;;7.70;99.90;;;;;;5021384;28;20108;-44
2022/01/27 09:37:06;;;;;;;32.75;9.95;;;7.70;99.90;;;;;;5022359;28;20017;-46
2022/01/27 09:39:33;;;;;;;28.67;9.82;;;7.70;99.90;;;;;;5037435;28;20040;-46
2022/01/27 09:42:00;;;;;;;30.50;8.88;;;7.90;99.90;;;;;;5021509;28;20022;-45
2022/01/27 09:44:30;;;;;;;29.88;10.15;;;8.00;99.90;;;;;;5022958;28;20109;-45
2022/01/27 09:47:07;;;;;;;22.55;9.00;;;8.20;99.90;;;;;;5021067;28;20081;-44
2022/01/27 09:49:38;;;;;;;28.65;8.40;;;8.20;99.90;;;;;;5022547;28;20052;-46
2022/01/27 09:52:05;;;;;;;24.13;8.32;;;8.30;99.90;;;;;;5021927;28;20022;-45
2022/01/27 09:54:30;;;;;;;20.80;7.80;;;8.30;99.90;;;;;;5021539;28;20022;-46
2022/01/27 09:56:56;;;;;;;22.00;7.93;;;8.20;99.90;;;;;;5021770;28;20401;-44
2022/01/27 09:59:23;;;;;;;22.45;7.63;;;8.20;99.90;;;;;;5021243;28;20486;-44
2022/01/27 10:02:09;;;;;;;22.50;8.32;;;8.20;99.90;;;;;;5022648;28;20125;-45
2022/01/27 10:04:51;;;;;;;22.45;7.97;;;8.20;99.90;;;;;;5019561;28;20036;-47
2022/01/27 10:07:35;;;;;;;21.27;7.60;;;8.30;99.90;;;;;;5018424;28;20033;-46
2022/01/27 10:10:17;;;;;;;21.95;8.23;;;8.20;99.90;;;;;;5019985;28;20053;-46
2022/01/27 10:12:48;;;;;;;19.70;7.18;;;8.30;99.90;;;;;;5019911;28;20018;-45
2022/01/27 10:15:21;;;;;;;31.73;7.93;;;8.20;99.90;;;;;;5020980;28;20032;-46
2022/01/27 10:18:08;;;;;;;26.30;7.43;;;8.20;99.90;;;;;;5020085;28;20014;-45
2022/01/27 10:20:39;;;;;;;21.17;7.40;;;8.30;99.90;;;;;;5019096;28;20018;-50
2022/01/27 10:23:22;;;;;;;25.45;7.68;;;8.30;99.90;;;;;;5020499;28;20045;-47
2022/01/27 10:25:58;;;;;;;26.85;7.13;;;8.30;99.90;;;;;;5017430;28;20050;-45
2022/01/27 10:29:01;;;;;;;25.92;7.35;;;8.30;99.90;;;;;;5020001;28;20057;-45
2022/01/27 10:31:20;;;;;;;20.50;7.43;;;8.30;99.90;;;;;;5018496;28;20053;-45
2022/01/27 10:33:53;;;;;;;21.60;7.05;;;8.30;99.90;;;;;;5018728;28;20026;-46
2022/01/27 10:36:19;;;;;;;16.25;6.75;;;8.40;99.90;;;;;;5019938;28;20042;-46
2022/01/27 10:38:45;;;;;;;20.25;6.60;;;8.40;99.90;;;;;;5020092;28;20045;-47
2022/01/27 10:41:11;;;;;;;17.38;6.43;;;8.50;99.90;;;;;;5019106;28;20038;-46
2022/01/27 10:43:37;;;;;;;20.05;6.32;;;8.50;99.90;;;;;;5020077;28;20041;-45
2022/01/27 10:46:27;;;;;;;22.23;6.05;;;8.50;99.90;;;;;;5015082;28;20121;-47
2022/01/27 10:51:27;;;;;;;16.65;6.13;;;8.50;99.90;;;;;;5019331;28;20038;-45
2022/01/27 10:54:04;;;;;;;22.40;6.95;;;8.60;99.90;;;;;;5020503;28;20022;-46
2022/01/27 10:56:33;;;;;;;27.17;7.00;;;8.60;99.90;;;;;;5019379;28;20153;-45
2022/01/27 10:59:02;;;;;;;21.42;6.70;;;8.60;99.90;;;;;;5019292;28;20046;-45
2022/01/27 11:01:36;;;;;;;20.10;5.72;;;8.60;99.90;;;;;;5021281;28;20045;-47
2022/01/27 11:04:04;;;;;;;21.50;6.32;;;8.70;99.90;;;;;;5018092;28;21592;-46
2022/01/27 11:06:33;;;;;;;19.55;6.03;;;8.70;99.90;;;;;;5022710;28;20069;-46
2022/01/27 11:09:04;;;;;;;23.88;6.43;;;8.70;99.90;;;;;;5020896;28;20026;-46
2022/01/27 11:11:30;;;;;;;23.05;6.15;;;8.60;99.90;;;;;;5020848;28;20468;-47
2022/01/27 11:13:58;;;;;;;25.35;6.13;;;8.60;99.90;;;;;;5027149;28;20035;-45
2022/01/27 11:16:32;;;;;;;23.17;6.90;;;8.60;99.90;;;;;;5034969;28;20039;-46
2022/01/27 11:19:13;;;;;;;26.00;6.28;;;8.60;99.90;;;;;;5035532;28;20033;-46
2022/01/27 11:21:42;;;;;;;21.00;6.82;;;8.70;99.90;;;;;;5029011;28;20034;-45
2022/01/27 11:24:24;;;;;;;21.48;5.22;;;8.70;99.90;;;;;;5023359;28;20053;-46
2022/01/27 11:26:54;;;;;;;23.08;5.18;;;8.80;99.90;;;;;;5028059;28;20034;-45
2022/01/27 11:29:23;;;;;;;18.08;5.05;;;8.90;99.90;;;;;;5031803;28;20052;-45
2022/01/27 11:32:28;;;;;;;23.10;5.53;;;8.90;99.90;;;;;;5023450;28;20096;-45
2022/01/27 11:34:55;;;;;;;23.63;4.88;;;8.90;99.90;;;;;;5015265;28;20029;-46
2022/01/27 11:37:33;;;;;;;23.30;5.00;;;9.00;99.90;;;;;;5025605;28;20450;-49
2022/01/27 11:40:10;;;;;;;20.98;4.40;;;9.10;99.90;;;;;;5024116;28;20093;-46
2022/01/27 11:42:37;;;;;;;19.55;4.40;;;9.10;99.90;;;;;;5023233;28;20034;-45
2022/01/27 11:45:42;;;;;;;19.48;4.75;;;9.10;99.90;;;;;;5020110;28;20045;-45
2022/01/27 11:48:17;;;;;;;17.83;4.30;;;9.10;99.90;;;;;;4954639;29;20051;-46
2022/01/27 11:56:38;;;;;;;20.58;4.38;;;9.10;99.90;;;;;;5003907;28;20034;-46
2022/01/27 12:05:33;;;;;;;15.68;4.15;;;9.10;99.90;;;;;;4972043;28;20043;-84
2022/01/27 12:08:15;;;;;;;17.67;4.28;;;9.10;99.90;;;;;;4956811;28;20036;-85
2022/01/27 12:10:49;;;;;;;21.60;4.53;;;9.10;99.90;;;;;;4956123;28;20027;-84
2022/01/27 12:13:29;;;;;;;18.33;4.97;;;9.20;99.90;;;;;;4968290;28;20024;-83
2022/01/27 12:19:09;;;;;;;18.05;4.20;;;9.40;99.90;;;;;;4973175;28;20035;-84
2022/01/27 12:21:51;;;;;;;20.52;4.25;;;9.50;99.90;;;;;;4946250;28;20031;-83
2022/01/27 12:24:28;;;;;;;15.68;4.22;;;9.50;99.90;;;;;;4965171;28;20034;-84
2022/01/27 12:27:02;;;;;;;19.48;4.15;;;9.50;99.90;;;;;;4984883;28;20507;-82
2022/01/27 12:29:41;;;;;;;18.20;4.30;;;9.50;99.90;;;;;;4969315;28;20090;-84
2022/01/27 12:32:21;;;;;;;18.40;4.75;;;9.50;99.90;;;;;;4950946;28;20027;-83
2022/01/27 12:35:13;;;;;;;14.18;3.60;;;9.50;99.90;;;;;;4989645;28;20033;-86
2022/01/27 12:37:45;;;;;;;16.88;4.40;;;9.50;99.90;;;;;;4949106;28;20667;-84
2022/01/27 12:40:26;;;;;;;19.67;4.25;;;9.50;99.90;;;;;;4956670;28;20037;-84
2022/01/27 12:42:59;;;;;;;18.17;3.97;;;9.50;99.90;;;;;;4955822;28;20046;-86
2022/01/27 12:45:33;;;;;;;20.00;4.40;;;9.50;99.90;;;;;;4959427;28;20898;-84
2022/01/27 12:48:14;;;;;;;20.88;4.55;;;9.50;99.90;;;;;;4955066;28;20527;-84
2022/01/27 12:50:41;;;;;;;17.33;3.83;;;9.50;99.90;;;;;;4968100;28;20475;-82
2022/01/27 12:53:13;;;;;;;16.45;3.85;;;9.50;99.90;;;;;;4978790;28;20130;-84
2022/01/27 12:55:40;;;;;;;;;;;9.50;99.90;;;;;;4939810;28;20047;-82
2022/01/27 12:58:08;;;;;;;19.77;4.45;;;9.50;99.90;;;;;;4947048;28;20317;-83
2022/01/27 13:00:41;;;;;;;18.15;4.00;;;9.40;99.90;;;;;;4969360;28;20019;-81
2022/01/27 13:03:08;;;;;;;22.95;3.95;;;9.40;99.90;;;;;;4964349;28;20396;-82
2022/01/27 13:05:37;;;;;;;16.52;3.65;;;9.40;99.90;;;;;;4986119;28;20061;-85
2022/01/27 13:08:15;;;;;;;19.30;4.07;;;9.40;99.90;;;;;;4971968;28;20027;-84
2022/01/27 13:10:50;;;;;;;18.40;3.85;;;9.40;99.90;;;;;;4972993;28;20031;-83
2022/01/27 13:13:21;;;;;;;18.65;4.63;;;9.40;99.90;;;;;;4949183;28;20042;-82
2022/01/27 13:15:57;;;;;;;17.10;3.80;;;9.40;99.90;;;;;;4963003;28;20070;-83
2022/01/27 13:18:38;;;;;;;20.60;4.05;;;9.40;99.90;;;;;;4964001;28;20058;-80
2022/01/27 13:21:07;;;;;;;17.50;3.97;;;9.40;99.90;;;;;;4941703;28;20019;-80
2022/01/27 13:23:41;;;;;;;21.00;3.47;;;9.40;99.90;;;;;;4931886;28;20067;-80
2022/01/27 13:26:10;;;;;;;23.15;3.83;;;9.30;99.90;;;;;;4960149;28;20074;-80
2022/01/27 13:28:37;;;;;;;24.13;3.97;;;9.30;99.90;;;;;;4944332;28;20031;-80
2022/01/27 13:31:10;;;;;;;22.92;3.95;;;9.30;99.90;;;;;;4941652;28;20047;-79
2022/01/27 13:33:40;;;;;;;20.55;4.03;;;9.30;99.90;;;;;;4958573;28;20023;-80
2022/01/27 13:36:09;;;;;;;21.25;3.60;;;9.30;99.90;;;;;;4953357;28;20030;-81
2022/01/27 13:38:51;;;;;;;18.77;4.13;;;9.30;99.90;;;;;;4961463;28;20082;-80
2022/01/27 13:41:19;;;;;;;20.05;4.03;;;9.30;99.90;;;;;;4949634;28;20031;-80
2022/01/27 13:43:48;;;;;;;19.23;3.95;;;9.30;99.90;;;;;;4946313;28;20028;-80
2022/01/27 13:46:53;;;;;;;20.10;3.88;;;9.30;99.90;;;;;;4960489;28;20047;-79
2022/01/27 13:49:46;;;;;;;19.60;3.38;;;9.40;99.90;;;;;;4968426;28;20075;-80
2022/01/27 13:52:15;;;;;;;20.98;4.10;;;9.50;99.90;;;;;;4936885;28;20050;-88
2022/01/27 13:54:47;;;;;;;18.75;3.50;;;9.50;99.90;;;;;;4956100;28;20023;-82